KJFKTLPL

Guest
Details From KJFK - John F Kennedy Intl
To TLPL - Hewanorra Intl
Flight Number -
Tags Generated
Created
Modified
Stats Distance 1,750 nm / 3,241 km
Max Altitude 0 ft / 0 m
Waypoints 5
Social Downloads 0
Likes 0
Share VATSIM

Download

Looking for another format? Having issues loading an existing format? Contact us
Advertisement - Login to hide

Notes

Generated

Route

KJFK WEBBB MON HWNRR TLPL

ID Type Via Altitude Latitude Longitude Leg Dist Tot Dist Heading (true) Name
O KJFK APT - 0 ft / 0 m 40.62537˚ -73.77035˚ - 0 nm - -
WEBBB FIX - 0 ft / 0 m 37.67156˚ -71.98203˚ 195 nm 195 nm 154° / 155° -
MON NDB - 0 ft / 0 m 16.79278˚ -62.19306˚ 1356 nm 1552 nm 155° / 159° GERALDS NDB
HWNRR FIX - 0 ft / 0 m 13.73281˚ -60.97574˚ 196 nm 1749 nm 159° / 159° -
O TLPL APT - 0 ft / 0 m 13.73320˚ -60.96526˚ 0 nm 1749 nm 88° / 88° -

Altitude Profile

Advertisement - Login to hide

Weather


0- 5 10 15 20 25 30 35+ Temperature / ° C

Clouds and Precipitation
Forecast for 2017-12-17 12:00 UTC. Updated an hour ago

Ground ~20,000 ft ~40,000 ft Winds

KJFK

Details ICAO KJFK (JFK)
Name John F Kennedy Intl
Region United States
Timezone America/New_York (UTC-5.0)
Stats Elevation 13 ft / 4 m (AMSL)
Location 40.639904° -73.776661°
Runways 4
Magnetic Variation 12.995° W

METAR

KJFK 170751Z 01005KT 10SM BKN036 OVC050 01/M06 A3026 RMK AO2 SLP247 T00111056

Decode

TAF

TAF KJFK 170542Z 1706/1812 35008KT P6SM BKN045 FM170700 36007KT P6SM SCT045 FM171600 VRB05KT P6SM BKN070 BKN250 FM180100 VRB03KT P6SM BKN035

Decode

Departure Runways

ID Width Length Bearing (true) Bearing (mag) Surface Threshold Offset Overrun Length
04L 151 ft / 46 m 11,358 ft / 3,462 m 30.66° 43.65° Asphalt 0 ft / 0 m 200 ft / 61 m
04R 200 ft / 61 m 8,405 ft / 2,562 m 30.67° 43.66° Asphalt 0 ft / 0 m 0 ft / 0 m
13L 151 ft / 46 m 9,986 ft / 3,044 m 120.85° 133.84° Asphalt 988 ft / 301 m 400 ft / 122 m
13R 151 ft / 46 m 14,553 ft / 4,436 m 120.83° 133.82° Asphalt 2,605 ft / 794 m 400 ft / 122 m
22L 200 ft / 61 m 8,405 ft / 2,562 m 210.68° 223.67° Asphalt 0 ft / 0 m 545 ft / 166 m
22R 151 ft / 46 m 11,358 ft / 3,462 m 210.67° 223.66° Asphalt 2,697 ft / 822 m 604 ft / 184 m
31L 151 ft / 46 m 14,553 ft / 4,436 m 300.86° 313.85° Asphalt 3,317 ft / 1,011 m 600 ft / 183 m
31R 151 ft / 46 m 9,986 ft / 3,044 m 300.87° 313.86° Asphalt 1,030 ft / 314 m 246 ft / 75 m

TLPL

Details ICAO TLPL (UVF)
Name St. Lucia/Hewanorra Intl
Region Saint Lucia
Timezone America/St_Lucia (UTC-4.0)
Stats Elevation 14 ft / 4 m (AMSL)
Location 13.733194° -60.952599°
Runways 1
Magnetic Variation 15.092° W

METAR

TLPL 170800Z 07017KT 9999 FEW024 26/22 Q1013 NOSIG

Decode

TAF

Not found

Destination Runways

ID Width Length Bearing (true) Bearing (mag) Surface Threshold Offset Overrun Length
10 148 ft / 45 m 8,979 ft / 2,737 m 90.01° 105.10° Asphalt 0 ft / 0 m 200 ft / 61 m
28 148 ft / 45 m 8,979 ft / 2,737 m 270.01° 285.10° Asphalt 459 ft / 140 m 0 ft / 0 m

Popular Alternatives